sensor_id;sensor_type;location;lat;lon;timestamp;P1;durP1;ratioP1;P2;durP2;ratioP2
13048;SDS011;6591;51.446;5.404;2023-08-06T00:01:10;2.30;;;1.73;;
13048;SDS011;6591;51.446;5.404;2023-08-06T00:03:38;2.67;;;2.20;;
13048;SDS011;6591;51.446;5.404;2023-08-06T00:06:06;2.75;;;2.13;;
13048;SDS011;6591;51.446;5.404;2023-08-06T00:08:33;3.25;;;2.00;;
13048;SDS011;6591;51.446;5.404;2023-08-06T00:11:01;2.53;;;2.05;;
13048;SDS011;6591;51.446;5.404;2023-08-06T00:13:28;2.58;;;1.73;;
13048;SDS011;6591;51.446;5.404;2023-08-06T00:16:07;5.05;;;2.15;;
13048;SDS011;6591;51.446;5.404;2023-08-06T00:18:40;1.77;;;1.63;;
13048;SDS011;6591;51.446;5.404;2023-08-06T00:21:07;2.15;;;1.77;;
13048;SDS011;6591;51.446;5.404;2023-08-06T00:23:35;2.75;;;1.90;;
13048;SDS011;6591;51.446;5.404;2023-08-06T00:26:02;2.17;;;1.90;;
13048;SDS011;6591;51.446;5.404;2023-08-06T00:28:29;3.50;;;2.08;;
13048;SDS011;6591;51.446;5.404;2023-08-06T00:30:56;2.35;;;1.85;;
13048;SDS011;6591;51.446;5.404;2023-08-06T00:33:24;2.13;;;1.92;;
13048;SDS011;6591;51.446;5.404;2023-08-06T00:35:51;2.40;;;2.08;;
13048;SDS011;6591;51.446;5.404;2023-08-06T00:38:19;2.60;;;1.85;;
13048;SDS011;6591;51.446;5.404;2023-08-06T00:40:46;2.60;;;1.83;;
13048;SDS011;6591;51.446;5.404;2023-08-06T00:43:14;1.70;;;1.60;;
13048;SDS011;6591;51.446;5.404;2023-08-06T00:45:41;2.15;;;1.70;;
13048;SDS011;6591;51.446;5.404;2023-08-06T00:48:09;1.95;;;1.80;;
13048;SDS011;6591;51.446;5.404;2023-08-06T00:50:37;2.05;;;1.88;;
13048;SDS011;6591;51.446;5.404;2023-08-06T00:53:04;2.58;;;2.20;;
13048;SDS011;6591;51.446;5.404;2023-08-06T00:55:32;2.00;;;1.80;;
13048;SDS011;6591;51.446;5.404;2023-08-06T00:58:00;2.50;;;2.08;;
13048;SDS011;6591;51.446;5.404;2023-08-06T01:00:29;4.00;;;1.80;;
13048;SDS011;6591;51.446;5.404;2023-08-06T01:02:57;2.22;;;2.03;;
13048;SDS011;6591;51.446;5.404;2023-08-06T01:05:24;2.13;;;1.95;;
13048;SDS011;6591;51.446;5.404;2023-08-06T01:14:08;4.28;;;1.95;;
13048;SDS011;6591;51.446;5.404;2023-08-06T01:16:54;2.25;;;1.70;;
13048;SDS011;6591;51.446;5.404;2023-08-06T01:19:25;3.45;;;2.05;;
13048;SDS011;6591;51.446;5.404;2023-08-06T01:21:52;1.77;;;1.67;;
13048;SDS011;6591;51.446;5.404;2023-08-06T01:24:20;2.35;;;1.70;;
13048;SDS011;6591;51.446;5.404;2023-08-06T01:30:12;2.47;;;1.67;;
13048;SDS011;6591;51.446;5.404;2023-08-06T01:32:44;2.60;;;1.95;;
13048;SDS011;6591;51.446;5.404;2023-08-06T01:35:17;1.83;;;1.60;;
13048;SDS011;6591;51.446;5.404;2023-08-06T01:37:47;2.30;;;1.88;;
13048;SDS011;6591;51.446;5.404;2023-08-06T01:40:15;3.67;;;2.10;;
13048;SDS011;6591;51.446;5.404;2023-08-06T01:42:42;2.45;;;2.13;;
13048;SDS011;6591;51.446;5.404;2023-08-06T01:45:09;5.13;;;2.97;;
13048;SDS011;6591;51.446;5.404;2023-08-06T01:47:37;3.60;;;2.80;;
13048;SDS011;6591;51.446;5.404;2023-08-06T01:50:04;4.93;;;2.95;;
13048;SDS011;6591;51.446;5.404;2023-08-06T01:52:31;4.50;;;2.97;;
13048;SDS011;6591;51.446;5.404;2023-08-06T01:54:59;4.70;;;3.10;;
13048;SDS011;6591;51.446;5.404;2023-08-06T01:57:26;4.53;;;2.70;;
13048;SDS011;6591;51.446;5.404;2023-08-06T01:59:53;3.08;;;2.58;;
13048;SDS011;6591;51.446;5.404;2023-08-06T02:02:20;3.70;;;2.58;;
13048;SDS011;6591;51.446;5.404;2023-08-06T02:04:48;5.68;;;2.40;;
13048;SDS011;6591;51.446;5.404;2023-08-06T02:07:15;2.70;;;2.08;;
13048;SDS011;6591;51.446;5.404;2023-08-06T02:09:42;3.15;;;2.17;;
13048;SDS011;6591;51.446;5.404;2023-08-06T02:12:09;3.10;;;2.08;;
13048;SDS011;6591;51.446;5.404;2023-08-06T02:14:37;1.73;;;1.50;;
13048;SDS011;6591;51.446;5.404;2023-08-06T02:17:05;2.00;;;1.80;;
13048;SDS011;6591;51.446;5.404;2023-08-06T02:19:32;2.53;;;1.90;;
13048;SDS011;6591;51.446;5.404;2023-08-06T02:21:59;1.70;;;1.42;;
13048;SDS011;6591;51.446;5.404;2023-08-06T02:24:26;5.10;;;1.85;;
13048;SDS011;6591;51.446;5.404;2023-08-06T02:26:54;2.45;;;1.63;;
13048;SDS011;6591;51.446;5.404;2023-08-06T02:29:22;2.05;;;1.55;;
13048;SDS011;6591;51.446;5.404;2023-08-06T02:31:49;1.60;;;1.50;;
13048;SDS011;6591;51.446;5.404;2023-08-06T02:34:17;2.90;;;1.63;;
13048;SDS011;6591;51.446;5.404;2023-08-06T02:36:45;2.90;;;1.75;;
13048;SDS011;6591;51.446;5.404;2023-08-06T02:39:12;2.55;;;1.60;;
13048;SDS011;6591;51.446;5.404;2023-08-06T02:41:39;1.95;;;1.42;;
13048;SDS011;6591;51.446;5.404;2023-08-06T02:44:07;2.35;;;1.88;;
13048;SDS011;6591;51.446;5.404;2023-08-06T02:46:34;3.78;;;1.60;;
13048;SDS011;6591;51.446;5.404;2023-08-06T02:49:01;3.70;;;1.73;;
13048;SDS011;6591;51.446;5.404;2023-08-06T02:51:29;2.33;;;1.92;;
13048;SDS011;6591;51.446;5.404;2023-08-06T02:53:56;2.00;;;1.65;;
13048;SDS011;6591;51.446;5.404;2023-08-06T02:56:23;2.65;;;1.55;;
13048;SDS011;6591;51.446;5.404;2023-08-06T02:59:05;2.25;;;1.60;;
13048;SDS011;6591;51.446;5.404;2023-08-06T03:01:56;1.73;;;1.40;;
13048;SDS011;6591;51.446;5.404;2023-08-06T03:04:31;3.40;;;1.60;;
13048;SDS011;6591;51.446;5.404;2023-08-06T03:06:58;2.13;;;1.65;;
13048;SDS011;6591;51.446;5.404;2023-08-06T03:09:34;4.88;;;1.80;;
13048;SDS011;6591;51.446;5.404;2023-08-06T03:12:01;3.22;;;1.77;;
13048;SDS011;6591;51.446;5.404;2023-08-06T03:14:28;2.72;;;1.85;;
13048;SDS011;6591;51.446;5.404;2023-08-06T03:16:57;2.63;;;1.95;;
13048;SDS011;6591;51.446;5.404;2023-08-06T03:19:24;3.08;;;2.13;;
13048;SDS011;6591;51.446;5.404;2023-08-06T03:21:52;8.38;;;2.13;;
13048;SDS011;6591;51.446;5.404;2023-08-06T03:24:21;2.25;;;1.95;;
13048;SDS011;6591;51.446;5.404;2023-08-06T03:26:48;2.55;;;1.88;;
13048;SDS011;6591;51.446;5.404;2023-08-06T03:29:16;2.55;;;2.10;;
13048;SDS011;6591;51.446;5.404;2023-08-06T03:31:46;3.65;;;1.95;;
13048;SDS011;6591;51.446;5.404;2023-08-06T03:34:15;2.40;;;2.00;;
13048;SDS011;6591;51.446;5.404;2023-08-06T03:36:43;2.45;;;1.90;;
13048;SDS011;6591;51.446;5.404;2023-08-06T03:39:10;3.40;;;1.98;;
13048;SDS011;6591;51.446;5.404;2023-08-06T03:41:39;3.00;;;2.00;;
13048;SDS011;6591;51.446;5.404;2023-08-06T03:44:07;2.38;;;2.00;;
13048;SDS011;6591;51.446;5.404;2023-08-06T03:46:34;2.28;;;1.90;;
13048;SDS011;6591;51.446;5.404;2023-08-06T03:49:04;3.55;;;2.20;;
13048;SDS011;6591;51.446;5.404;2023-08-06T03:51:31;2.05;;;1.85;;
13048;SDS011;6591;51.446;5.404;2023-08-06T03:54:00;4.60;;;1.80;;
13048;SDS011;6591;51.446;5.404;2023-08-06T03:56:27;2.78;;;1.75;;
13048;SDS011;6591;51.446;5.404;2023-08-06T03:58:54;3.25;;;2.20;;
13048;SDS011;6591;51.446;5.404;2023-08-06T04:01:23;2.10;;;1.90;;
13048;SDS011;6591;51.446;5.404;2023-08-06T04:03:51;2.05;;;1.80;;
13048;SDS011;6591;51.446;5.404;2023-08-06T04:06:18;3.17;;;2.15;;
13048;SDS011;6591;51.446;5.404;2023-08-06T04:08:46;2.10;;;1.58;;
13048;SDS011;6591;51.446;5.404;2023-08-06T04:11:13;2.92;;;2.05;;
13048;SDS011;6591;51.446;5.404;2023-08-06T04:13:44;3.55;;;2.40;;
13048;SDS011;6591;51.446;5.404;2023-08-06T04:16:11;4.03;;;2.25;;
13048;SDS011;6591;51.446;5.404;2023-08-06T04:18:40;2.60;;;2.30;;
13048;SDS011;6591;51.446;5.404;2023-08-06T04:21:08;3.15;;;2.38;;
13048;SDS011;6591;51.446;5.404;2023-08-06T04:23:35;3.20;;;2.65;;
13048;SDS011;6591;51.446;5.404;2023-08-06T04:26:05;3.50;;;2.30;;
13048;SDS011;6591;51.446;5.404;2023-08-06T04:28:34;3.67;;;2.28;;
13048;SDS011;6591;51.446;5.404;2023-08-06T04:31:01;3.08;;;2.58;;
13048;SDS011;6591;51.446;5.404;2023-08-06T04:33:31;2.95;;;2.10;;
13048;SDS011;6591;51.446;5.404;2023-08-06T04:36:03;4.55;;;2.50;;
13048;SDS011;6591;51.446;5.404;2023-08-06T04:38:32;2.42;;;2.03;;
13048;SDS011;6591;51.446;5.404;2023-08-06T04:41:02;3.08;;;2.47;;
13048;SDS011;6591;51.446;5.404;2023-08-06T04:43:32;3.40;;;2.60;;
13048;SDS011;6591;51.446;5.404;2023-08-06T04:45:59;4.75;;;2.75;;
13048;SDS011;6591;51.446;5.404;2023-08-06T04:48:27;2.97;;;2.60;;
13048;SDS011;6591;51.446;5.404;2023-08-06T04:50:54;3.58;;;2.90;;
13048;SDS011;6591;51.446;5.404;2023-08-06T04:53:21;3.67;;;2.67;;
13048;SDS011;6591;51.446;5.404;2023-08-06T04:55:48;3.65;;;2.70;;
13048;SDS011;6591;51.446;5.404;2023-08-06T04:58:15;3.20;;;2.50;;
13048;SDS011;6591;51.446;5.404;2023-08-06T05:00:42;2.88;;;2.58;;
13048;SDS011;6591;51.446;5.404;2023-08-06T05:03:09;3.17;;;2.42;;
13048;SDS011;6591;51.446;5.404;2023-08-06T05:05:37;4.72;;;3.00;;
13048;SDS011;6591;51.446;5.404;2023-08-06T05:08:13;3.75;;;2.83;;
13048;SDS011;6591;51.446;5.404;2023-08-06T05:10:45;2.78;;;2.58;;
13048;SDS011;6591;51.446;5.404;2023-08-06T05:13:12;4.47;;;2.85;;
13048;SDS011;6591;51.446;5.404;2023-08-06T05:15:39;3.22;;;2.92;;
13048;SDS011;6591;51.446;5.404;2023-08-06T05:18:09;3.33;;;2.97;;
13048;SDS011;6591;51.446;5.404;2023-08-06T05:20:39;3.05;;;2.75;;
13048;SDS011;6591;51.446;5.404;2023-08-06T05:23:09;3.17;;;2.88;;
13048;SDS011;6591;51.446;5.404;2023-08-06T05:25:36;4.18;;;2.78;;
13048;SDS011;6591;51.446;5.404;2023-08-06T05:28:04;4.22;;;3.40;;
13048;SDS011;6591;51.446;5.404;2023-08-06T05:30:32;3.25;;;2.95;;
13048;SDS011;6591;51.446;5.404;2023-08-06T05:32:59;3.67;;;3.30;;
13048;SDS011;6591;51.446;5.404;2023-08-06T05:35:26;3.60;;;2.83;;
13048;SDS011;6591;51.446;5.404;2023-08-06T05:37:53;4.47;;;3.22;;
13048;SDS011;6591;51.446;5.404;2023-08-06T05:40:21;3.25;;;2.95;;
13048;SDS011;6591;51.446;5.404;2023-08-06T05:42:48;4.28;;;3.45;;
13048;SDS011;6591;51.446;5.404;2023-08-06T05:45:15;3.58;;;3.28;;
13048;SDS011;6591;51.446;5.404;2023-08-06T05:47:43;3.85;;;3.45;;
13048;SDS011;6591;51.446;5.404;2023-08-06T05:50:10;3.80;;;3.50;;
13048;SDS011;6591;51.446;5.404;2023-08-06T05:52:37;3.72;;;3.13;;
13048;SDS011;6591;51.446;5.404;2023-08-06T05:55:05;3.85;;;3.25;;
13048;SDS011;6591;51.446;5.404;2023-08-06T05:57:32;3.15;;;2.85;;
13048;SDS011;6591;51.446;5.404;2023-08-06T05:59:59;4.35;;;3.10;;
13048;SDS011;6591;51.446;5.404;2023-08-06T06:02:37;3.13;;;2.83;;
13048;SDS011;6591;51.446;5.404;2023-08-06T06:05:05;4.20;;;2.90;;
13048;SDS011;6591;51.446;5.404;2023-08-06T06:07:35;4.03;;;3.17;;
13048;SDS011;6591;51.446;5.404;2023-08-06T06:10:02;3.72;;;3.28;;
13048;SDS011;6591;51.446;5.404;2023-08-06T06:12:30;4.10;;;3.30;;
13048;SDS011;6591;51.446;5.404;2023-08-06T06:14:58;3.55;;;3.20;;
13048;SDS011;6591;51.446;5.404;2023-08-06T06:17:27;4.00;;;3.25;;
13048;SDS011;6591;51.446;5.404;2023-08-06T06:19:55;3.33;;;2.92;;
13048;SDS011;6591;51.446;5.404;2023-08-06T06:22:22;3.83;;;3.33;;
13048;SDS011;6591;51.446;5.404;2023-08-06T06:24:50;3.50;;;3.20;;
13048;SDS011;6591;51.446;5.404;2023-08-06T06:27:17;3.17;;;2.88;;
13048;SDS011;6591;51.446;5.404;2023-08-06T06:29:44;7.28;;;3.10;;
13048;SDS011;6591;51.446;5.404;2023-08-06T06:32:11;6.15;;;3.08;;
13048;SDS011;6591;51.446;5.404;2023-08-06T06:34:38;3.55;;;3.20;;
13048;SDS011;6591;51.446;5.404;2023-08-06T06:37:06;3.40;;;3.10;;
13048;SDS011;6591;51.446;5.404;2023-08-06T06:39:33;2.75;;;2.45;;
13048;SDS011;6591;51.446;5.404;2023-08-06T06:42:00;3.83;;;2.15;;
13048;SDS011;6591;51.446;5.404;2023-08-06T06:44:35;2.20;;;1.77;;
13048;SDS011;6591;51.446;5.404;2023-08-06T06:47:02;1.30;;;1.20;;
13048;SDS011;6591;51.446;5.404;2023-08-06T06:49:30;1.50;;;1.10;;
13048;SDS011;6591;51.446;5.404;2023-08-06T06:51:57;1.30;;;1.20;;
13048;SDS011;6591;51.446;5.404;2023-08-06T06:54:24;1.50;;;1.30;;
13048;SDS011;6591;51.446;5.404;2023-08-06T06:56:51;1.70;;;1.50;;
13048;SDS011;6591;51.446;5.404;2023-08-06T06:59:18;1.75;;;1.65;;
13048;SDS011;6591;51.446;5.404;2023-08-06T07:01:45;1.60;;;1.50;;
13048;SDS011;6591;51.446;5.404;2023-08-06T07:04:13;2.63;;;1.58;;
13048;SDS011;6591;51.446;5.404;2023-08-06T07:06:40;2.83;;;1.90;;
13048;SDS011;6591;51.446;5.404;2023-08-06T07:09:07;2.38;;;1.80;;
13048;SDS011;6591;51.446;5.404;2023-08-06T07:11:34;1.92;;;1.60;;
13048;SDS011;6591;51.446;5.404;2023-08-06T07:14:01;2.38;;;2.08;;
13048;SDS011;6591;51.446;5.404;2023-08-06T07:16:28;2.97;;;2.40;;
13048;SDS011;6591;51.446;5.404;2023-08-06T07:18:55;2.40;;;2.20;;
13048;SDS011;6591;51.446;5.404;2023-08-06T07:21:22;2.50;;;2.25;;
13048;SDS011;6591;51.446;5.404;2023-08-06T07:23:50;2.63;;;2.08;;
13048;SDS011;6591;51.446;5.404;2023-08-06T07:26:17;2.30;;;2.10;;
13048;SDS011;6591;51.446;5.404;2023-08-06T07:28:45;1.80;;;1.67;;
13048;SDS011;6591;51.446;5.404;2023-08-06T07:31:12;2.20;;;2.00;;
13048;SDS011;6591;51.446;5.404;2023-08-06T07:33:39;3.13;;;2.03;;
13048;SDS011;6591;51.446;5.404;2023-08-06T07:36:07;2.47;;;2.13;;
13048;SDS011;6591;51.446;5.404;2023-08-06T07:38:39;2.92;;;2.40;;
13048;SDS011;6591;51.446;5.404;2023-08-06T07:41:08;3.57;;;2.60;;
13048;SDS011;6591;51.446;5.404;2023-08-06T07:43:35;2.67;;;2.47;;
13048;SDS011;6591;51.446;5.404;2023-08-06T07:46:03;2.60;;;2.40;;
13048;SDS011;6591;51.446;5.404;2023-08-06T07:48:30;3.50;;;2.50;;
13048;SDS011;6591;51.446;5.404;2023-08-06T07:50:57;2.38;;;2.10;;
13048;SDS011;6591;51.446;5.404;2023-08-06T07:53:26;5.20;;;3.00;;
13048;SDS011;6591;51.446;5.404;2023-08-06T07:55:56;3.25;;;2.60;;
13048;SDS011;6591;51.446;5.404;2023-08-06T07:58:28;3.30;;;2.60;;
13048;SDS011;6591;51.446;5.404;2023-08-06T08:00:56;4.82;;;3.03;;
13048;SDS011;6591;51.446;5.404;2023-08-06T08:03:23;3.70;;;2.70;;
13048;SDS011;6591;51.446;5.404;2023-08-06T08:05:50;4.53;;;2.73;;
13048;SDS011;6591;51.446;5.404;2023-08-06T08:08:25;4.25;;;2.67;;
13048;SDS011;6591;51.446;5.404;2023-08-06T08:10:52;4.35;;;2.70;;
13048;SDS011;6591;51.446;5.404;2023-08-06T08:13:21;2.70;;;2.30;;
13048;SDS011;6591;51.446;5.404;2023-08-06T08:15:48;4.78;;;2.90;;
13048;SDS011;6591;51.446;5.404;2023-08-06T08:18:16;3.65;;;3.05;;
13048;SDS011;6591;51.446;5.404;2023-08-06T08:20:43;2.47;;;2.28;;
13048;SDS011;6591;51.446;5.404;2023-08-06T08:23:10;3.92;;;2.70;;
13048;SDS011;6591;51.446;5.404;2023-08-06T08:25:38;3.35;;;2.90;;
13048;SDS011;6591;51.446;5.404;2023-08-06T08:28:05;3.72;;;2.33;;
13048;SDS011;6591;51.446;5.404;2023-08-06T08:30:32;4.25;;;2.33;;
13048;SDS011;6591;51.446;5.404;2023-08-06T08:32:59;4.93;;;2.42;;
13048;SDS011;6591;51.446;5.404;2023-08-06T08:35:27;3.92;;;2.60;;
13048;SDS011;6591;51.446;5.404;2023-08-06T08:37:54;5.03;;;2.53;;
13048;SDS011;6591;51.446;5.404;2023-08-06T08:40:22;3.53;;;2.30;;
13048;SDS011;6591;51.446;5.404;2023-08-06T08:42:59;4.00;;;2.40;;
13048;SDS011;6591;51.446;5.404;2023-08-06T08:45:28;5.15;;;2.40;;
13048;SDS011;6591;51.446;5.404;2023-08-06T08:47:57;4.95;;;2.55;;
13048;SDS011;6591;51.446;5.404;2023-08-06T08:50:25;3.60;;;2.53;;
13048;SDS011;6591;51.446;5.404;2023-08-06T08:52:52;3.33;;;2.53;;
13048;SDS011;6591;51.446;5.404;2023-08-06T08:55:20;3.90;;;2.70;;
13048;SDS011;6591;51.446;5.404;2023-08-06T08:57:49;5.38;;;2.80;;
13048;SDS011;6591;51.446;5.404;2023-08-06T09:00:17;7.43;;;2.85;;
13048;SDS011;6591;51.446;5.404;2023-08-06T09:02:45;3.53;;;2.53;;
13048;SDS011;6591;51.446;5.404;2023-08-06T09:05:13;4.68;;;2.70;;
13048;SDS011;6591;51.446;5.404;2023-08-06T09:07:43;3.28;;;2.53;;
13048;SDS011;6591;51.446;5.404;2023-08-06T09:10:16;5.32;;;3.03;;
13048;SDS011;6591;51.446;5.404;2023-08-06T09:12:46;6.13;;;2.85;;
13048;SDS011;6591;51.446;5.404;2023-08-06T09:15:17;5.63;;;2.70;;
13048;SDS011;6591;51.446;5.404;2023-08-06T09:17:45;3.95;;;2.60;;
13048;SDS011;6591;51.446;5.404;2023-08-06T09:20:12;5.13;;;3.15;;
13048;SDS011;6591;51.446;5.404;2023-08-06T09:22:41;4.53;;;2.60;;
13048;SDS011;6591;51.446;5.404;2023-08-06T09:25:08;5.18;;;2.85;;
13048;SDS011;6591;51.446;5.404;2023-08-06T09:27:36;5.05;;;2.92;;
13048;SDS011;6591;51.446;5.404;2023-08-06T09:30:06;3.53;;;2.38;;
13048;SDS011;6591;51.446;5.404;2023-08-06T09:35:21;3.92;;;2.63;;
13048;SDS011;6591;51.446;5.404;2023-08-06T09:37:49;4.68;;;2.72;;
13048;SDS011;6591;51.446;5.404;2023-08-06T09:42:58;4.88;;;2.08;;
13048;SDS011;6591;51.446;5.404;2023-08-06T09:45:39;2.80;;;2.00;;
13048;SDS011;6591;51.446;5.404;2023-08-06T09:48:08;6.47;;;2.55;;
13048;SDS011;6591;51.446;5.404;2023-08-06T09:50:36;3.78;;;2.50;;
13048;SDS011;6591;51.446;5.404;2023-08-06T09:53:05;5.28;;;2.50;;
13048;SDS011;6591;51.446;5.404;2023-08-06T09:55:35;4.13;;;2.13;;
13048;SDS011;6591;51.446;5.404;2023-08-06T09:58:02;5.20;;;2.17;;
13048;SDS011;6591;51.446;5.404;2023-08-06T10:00:32;5.35;;;2.17;;
13048;SDS011;6591;51.446;5.404;2023-08-06T10:03:05;3.17;;;2.00;;
13048;SDS011;6591;51.446;5.404;2023-08-06T10:05:35;6.40;;;2.90;;
13048;SDS011;6591;51.446;5.404;2023-08-06T10:08:05;5.80;;;2.20;;
13048;SDS011;6591;51.446;5.404;2023-08-06T10:10:33;2.83;;;1.90;;
13048;SDS011;6591;51.446;5.404;2023-08-06T10:13:02;6.63;;;2.60;;
13048;SDS011;6591;51.446;5.404;2023-08-06T10:15:34;3.72;;;2.00;;
13048;SDS011;6591;51.446;5.404;2023-08-06T10:18:04;3.83;;;2.05;;
13048;SDS011;6591;51.446;5.404;2023-08-06T10:20:34;4.40;;;2.53;;
13048;SDS011;6591;51.446;5.404;2023-08-06T10:23:02;3.20;;;2.25;;
13048;SDS011;6591;51.446;5.404;2023-08-06T10:25:33;3.97;;;2.20;;
13048;SDS011;6591;51.446;5.404;2023-08-06T10:28:08;4.53;;;2.00;;
13048;SDS011;6591;51.446;5.404;2023-08-06T10:30:43;2.75;;;1.90;;
13048;SDS011;6591;51.446;5.404;2023-08-06T10:33:13;3.20;;;1.90;;
13048;SDS011;6591;51.446;5.404;2023-08-06T10:35:44;4.03;;;2.30;;
13048;SDS011;6591;51.446;5.404;2023-08-06T10:38:17;5.72;;;2.50;;
13048;SDS011;6591;51.446;5.404;2023-08-06T10:43:32;5.57;;;2.13;;
13048;SDS011;6591;51.446;5.404;2023-08-06T10:46:01;2.83;;;1.80;;
13048;SDS011;6591;51.446;5.404;2023-08-06T10:48:34;3.05;;;1.65;;
13048;SDS011;6591;51.446;5.404;2023-08-06T10:51:12;3.70;;;2.10;;
13048;SDS011;6591;51.446;5.404;2023-08-06T10:53:41;4.78;;;2.03;;
13048;SDS011;6591;51.446;5.404;2023-08-06T10:58:46;2.95;;;2.13;;
13048;SDS011;6591;51.446;5.404;2023-08-06T11:01:17;6.05;;;2.10;;
13048;SDS011;6591;51.446;5.404;2023-08-06T11:03:46;5.43;;;2.00;;
13048;SDS011;6591;51.446;5.404;2023-08-06T11:06:19;4.28;;;1.92;;
13048;SDS011;6591;51.446;5.404;2023-08-06T11:08:54;5.15;;;1.83;;
13048;SDS011;6591;51.446;5.404;2023-08-06T11:11:22;4.00;;;1.80;;
13048;SDS011;6591;51.446;5.404;2023-08-06T11:13:50;3.08;;;1.63;;
13048;SDS011;6591;51.446;5.404;2023-08-06T11:16:19;5.05;;;2.22;;
13048;SDS011;6591;51.446;5.404;2023-08-06T11:18:52;4.35;;;2.00;;
13048;SDS011;6591;51.446;5.404;2023-08-06T11:21:21;4.97;;;2.17;;
13048;SDS011;6591;51.446;5.404;2023-08-06T11:23:51;5.93;;;2.40;;
13048;SDS011;6591;51.446;5.404;2023-08-06T11:26:19;4.30;;;2.00;;
13048;SDS011;6591;51.446;5.404;2023-08-06T11:28:47;2.83;;;2.10;;
13048;SDS011;6591;51.446;5.404;2023-08-06T11:31:21;3.28;;;2.00;;
13048;SDS011;6591;51.446;5.404;2023-08-06T11:33:50;3.38;;;2.15;;
13048;SDS011;6591;51.446;5.404;2023-08-06T11:36:28;3.95;;;1.92;;
13048;SDS011;6591;51.446;5.404;2023-08-06T11:39:00;4.15;;;2.15;;
13048;SDS011;6591;51.446;5.404;2023-08-06T11:41:29;3.38;;;2.20;;
13048;SDS011;6591;51.446;5.404;2023-08-06T11:43:57;3.78;;;1.80;;
13048;SDS011;6591;51.446;5.404;2023-08-06T11:46:25;4.45;;;2.20;;
13048;SDS011;6591;51.446;5.404;2023-08-06T11:48:55;3.88;;;2.20;;
13048;SDS011;6591;51.446;5.404;2023-08-06T11:51:25;3.25;;;2.05;;
13048;SDS011;6591;51.446;5.404;2023-08-06T11:53:55;4.90;;;1.85;;
13048;SDS011;6591;51.446;5.404;2023-08-06T11:56:26;2.75;;;1.75;;
13048;SDS011;6591;51.446;5.404;2023-08-06T11:58:54;2.60;;;1.80;;
13048;SDS011;6591;51.446;5.404;2023-08-06T12:01:22;3.85;;;2.00;;
13048;SDS011;6591;51.446;5.404;2023-08-06T12:03:49;3.13;;;1.70;;
13048;SDS011;6591;51.446;5.404;2023-08-06T12:06:16;3.03;;;1.65;;
13048;SDS011;6591;51.446;5.404;2023-08-06T12:08:44;2.28;;;1.50;;
13048;SDS011;6591;51.446;5.404;2023-08-06T12:11:11;4.05;;;1.85;;
13048;SDS011;6591;51.446;5.404;2023-08-06T12:13:38;4.10;;;1.90;;
13048;SDS011;6591;51.446;5.404;2023-08-06T12:16:05;2.85;;;1.55;;
13048;SDS011;6591;51.446;5.404;2023-08-06T12:18:32;1.88;;;1.35;;
13048;SDS011;6591;51.446;5.404;2023-08-06T12:21:00;2.83;;;1.45;;
13048;SDS011;6591;51.446;5.404;2023-08-06T12:23:27;2.88;;;1.60;;
13048;SDS011;6591;51.446;5.404;2023-08-06T12:25:54;2.15;;;1.30;;
13048;SDS011;6591;51.446;5.404;2023-08-06T12:28:21;2.60;;;1.40;;
13048;SDS011;6591;51.446;5.404;2023-08-06T12:30:49;3.22;;;1.52;;
13048;SDS011;6591;51.446;5.404;2023-08-06T12:33:17;2.40;;;1.30;;
13048;SDS011;6591;51.446;5.404;2023-08-06T12:35:45;1.60;;;1.15;;
13048;SDS011;6591;51.446;5.404;2023-08-06T12:38:12;2.97;;;1.30;;
13048;SDS011;6591;51.446;5.404;2023-08-06T12:40:40;3.45;;;1.20;;
13048;SDS011;6591;51.446;5.404;2023-08-06T12:43:09;1.65;;;1.20;;
13048;SDS011;6591;51.446;5.404;2023-08-06T12:45:37;3.05;;;1.30;;
13048;SDS011;6591;51.446;5.404;2023-08-06T12:48:07;2.47;;;1.30;;
13048;SDS011;6591;51.446;5.404;2023-08-06T12:50:35;2.10;;;0.98;;
13048;SDS011;6591;51.446;5.404;2023-08-06T12:53:02;2.65;;;1.00;;
13048;SDS011;6591;51.446;5.404;2023-08-06T12:55:31;1.48;;;0.98;;
13048;SDS011;6591;51.446;5.404;2023-08-06T12:57:59;2.90;;;1.23;;
13048;SDS011;6591;51.446;5.404;2023-08-06T13:00:26;3.60;;;1.45;;
13048;SDS011;6591;51.446;5.404;2023-08-06T13:02:54;2.60;;;1.10;;
13048;SDS011;6591;51.446;5.404;2023-08-06T13:05:21;2.25;;;1.10;;
13048;SDS011;6591;51.446;5.404;2023-08-06T13:07:49;3.30;;;1.52;;
13048;SDS011;6591;51.446;5.404;2023-08-06T13:10:16;2.70;;;1.25;;
13048;SDS011;6591;51.446;5.404;2023-08-06T13:12:45;2.05;;;1.10;;
13048;SDS011;6591;51.446;5.404;2023-08-06T13:15:12;5.90;;;1.30;;
13048;SDS011;6591;51.446;5.404;2023-08-06T13:17:41;2.70;;;1.27;;
13048;SDS011;6591;51.446;5.404;2023-08-06T13:20:08;4.03;;;1.50;;
13048;SDS011;6591;51.446;5.404;2023-08-06T13:22:36;3.30;;;1.05;;
13048;SDS011;6591;51.446;5.404;2023-08-06T13:25:04;5.15;;;1.25;;
13048;SDS011;6591;51.446;5.404;2023-08-06T13:27:31;4.35;;;1.67;;
13048;SDS011;6591;51.446;5.404;2023-08-06T13:29:58;5.10;;;1.63;;
13048;SDS011;6591;51.446;5.404;2023-08-06T13:32:25;4.78;;;1.48;;
13048;SDS011;6591;51.446;5.404;2023-08-06T13:34:52;4.93;;;1.85;;
13048;SDS011;6591;51.446;5.404;2023-08-06T13:37:20;2.40;;;1.17;;
13048;SDS011;6591;51.446;5.404;2023-08-06T13:39:47;4.88;;;1.40;;
13048;SDS011;6591;51.446;5.404;2023-08-06T13:42:14;3.45;;;1.75;;
13048;SDS011;6591;51.446;5.404;2023-08-06T13:44:41;2.10;;;1.10;;
13048;SDS011;6591;51.446;5.404;2023-08-06T13:47:08;3.78;;;1.50;;
13048;SDS011;6591;51.446;5.404;2023-08-06T13:49:35;4.18;;;1.23;;
13048;SDS011;6591;51.446;5.404;2023-08-06T13:52:02;1.98;;;1.05;;
13048;SDS011;6591;51.446;5.404;2023-08-06T13:54:47;2.25;;;1.10;;
13048;SDS011;6591;51.446;5.404;2023-08-06T13:57:14;2.75;;;1.10;;
13048;SDS011;6591;51.446;5.404;2023-08-06T13:59:41;3.45;;;1.30;;
13048;SDS011;6591;51.446;5.404;2023-08-06T14:02:10;3.50;;;1.38;;
13048;SDS011;6591;51.446;5.404;2023-08-06T14:04:37;4.63;;;1.40;;
13048;SDS011;6591;51.446;5.404;2023-08-06T14:07:06;3.67;;;1.38;;
13048;SDS011;6591;51.446;5.404;2023-08-06T14:09:33;3.00;;;1.10;;
13048;SDS011;6591;51.446;5.404;2023-08-06T14:12:01;2.38;;;1.20;;
13048;SDS011;6591;51.446;5.404;2023-08-06T14:14:29;2.97;;;1.58;;
13048;SDS011;6591;51.446;5.404;2023-08-06T14:16:56;1.90;;;1.45;;
13048;SDS011;6591;51.446;5.404;2023-08-06T14:19:26;4.35;;;1.52;;
13048;SDS011;6591;51.446;5.404;2023-08-06T14:21:55;2.25;;;1.30;;
13048;SDS011;6591;51.446;5.404;2023-08-06T14:24:22;3.00;;;1.40;;
13048;SDS011;6591;51.446;5.404;2023-08-06T14:26:49;2.58;;;1.40;;
13048;SDS011;6591;51.446;5.404;2023-08-06T14:29:16;2.70;;;1.70;;
13048;SDS011;6591;51.446;5.404;2023-08-06T14:31:43;1.33;;;0.98;;
13048;SDS011;6591;51.446;5.404;2023-08-06T14:34:11;2.88;;;1.65;;
13048;SDS011;6591;51.446;5.404;2023-08-06T14:36:38;3.60;;;1.63;;
13048;SDS011;6591;51.446;5.404;2023-08-06T14:39:06;2.63;;;1.50;;
13048;SDS011;6591;51.446;5.404;2023-08-06T14:41:33;2.05;;;1.42;;
13048;SDS011;6591;51.446;5.404;2023-08-06T14:44:00;2.33;;;1.70;;
13048;SDS011;6591;51.446;5.404;2023-08-06T14:46:27;1.65;;;1.30;;
13048;SDS011;6591;51.446;5.404;2023-08-06T14:48:54;3.40;;;1.52;;
13048;SDS011;6591;51.446;5.404;2023-08-06T14:51:21;2.33;;;1.35;;
13048;SDS011;6591;51.446;5.404;2023-08-06T14:53:49;1.35;;;1.15;;
13048;SDS011;6591;51.446;5.404;2023-08-06T14:56:16;4.00;;;1.67;;
13048;SDS011;6591;51.446;5.404;2023-08-06T14:58:44;4.43;;;1.35;;
13048;SDS011;6591;51.446;5.404;2023-08-06T15:01:12;1.45;;;1.20;;
13048;SDS011;6591;51.446;5.404;2023-08-06T15:03:39;1.75;;;1.17;;
13048;SDS011;6591;51.446;5.404;2023-08-06T15:06:06;6.03;;;1.75;;
13048;SDS011;6591;51.446;5.404;2023-08-06T15:08:34;4.75;;;2.13;;
13048;SDS011;6591;51.446;5.404;2023-08-06T15:11:01;2.85;;;1.55;;
13048;SDS011;6591;51.446;5.404;2023-08-06T15:13:29;3.58;;;1.50;;
13048;SDS011;6591;51.446;5.404;2023-08-06T15:15:56;2.38;;;1.40;;
13048;SDS011;6591;51.446;5.404;2023-08-06T15:18:23;2.78;;;1.38;;
13048;SDS011;6591;51.446;5.404;2023-08-06T15:20:51;7.47;;;1.73;;
13048;SDS011;6591;51.446;5.404;2023-08-06T15:23:18;1.67;;;1.13;;
13048;SDS011;6591;51.446;5.404;2023-08-06T15:25:46;6.22;;;1.30;;
13048;SDS011;6591;51.446;5.404;2023-08-06T15:28:13;2.13;;;1.33;;